Date,TemperatureHighF,TemperatureAvgF,TemperatureLowF,DewpointHighF,DewpointAvgF,DewpointLowF,HumidityHigh,HumidityAvg,HumidityLow,PressureMaxIn,PressureMinIn,WindSpeedMaxMPH,WindSpeedAvgMPH,GustSpeedMaxMPH,PrecipitationSumIn
2013-2-1,47.3,30.8,18.8,22.4,14.4,6.1,73,52,32,30.41,30.12,6,2,12,0.00
2013-2-2,62.0,42.5,26.6,36.1,29.2,21.1,83,61,36,30.24,30.12,5,1,9,0.00
2013-2-3,60.6,48.6,34.8,32.0,29.4,25.3,70,49,29,30.26,29.90,5,2,9,0.00
2013-2-4,70.7,56.5,41.9,43.1,36.8,31.5,70,49,30,29.93,29.80,6,3,11,0.06
2013-2-5,71.4,48.4,31.1,45.3,34.4,27.1,87,62,27,30.00,29.89,3,1,6,0.00
2013-2-6,69.2,51.8,34.1,51.9,40.5,29.4,85,67,51,30.02,29.86,7,3,14,0.00
2013-2-7,62.7,52.9,41.9,55.4,47.7,37.1,89,82,71,30.11,29.81,5,3,12,0.03
2013-2-8,53.6,41.8,35.9,37.3,34.1,31.3,86,75,50,30.28,30.11,7,2,12,0.00
2013-2-9,45.3,42.1,36.6,42.5,36.6,31.7,91,81,68,30.12,29.73,7,4,15,0.06
2013-2-10,64.9,53.4,38.6,51.1,37.2,27.0,94,59,27,30.03,29.62,8,4,18,0.11
2013-2-11,55.7,42.2,31.8,30.3,27.3,24.3,74,57,34,30.18,30.03,5,2,8,0.00
2013-2-12,44.7,38.0,32.7,37.7,31.8,25.7,91,78,59,30.09,29.93,5,2,9,0.31
2013-2-13,59.0,44.1,34.8,38.9,34.2,28.6,91,71,39,30.02,29.91,5,2,10,0.03
2013-2-14,62.6,47.2,32.7,39.3,32.3,26.0,79,58,39,30.17,29.93,6,2,9,0.00
2013-2-15,48.0,38.0,29.3,32.0,21.7,15.4,74,54,28,30.36,30.15,6,3,11,0.00
2013-2-16,49.2,37.4,26.6,26.7,19.5,13.7,75,50,31,30.34,30.03,6,3,11,0.00
2013-2-17,72.5,51.6,28.9,38.1,30.7,21.0,80,49,26,30.03,29.75,8,4,15,0.00
2013-2-18,62.9,53.2,39.2,39.9,33.3,26.4,60,47,39,30.11,29.66,12,6,21,0.00
2013-2-19,54.1,40.8,26.6,28.9,24.6,20.2,79,54,34,30.30,30.10,4,1,8,0.00
2013-2-20,39.0,36.4,33.4,33.1,29.1,22.0,91,76,52,30.23,29.98,4,2,8,0.50
2013-2-21,37.7,35.1,29.4,35.1,31.9,23.1,92,88,76,29.98,29.67,9,3,14,0.92
2013-2-22,42.0,31.3,22.4,25.8,21.0,16.9,80,66,49,30.12,29.93,7,3,11,0.00
2013-2-23,48.7,33.9,21.5,26.9,22.1,16.5,83,63,40,30.09,29.92,3,1,6,0.00
2013-2-24,63.1,44.2,27.3,42.5,32.4,22.5,84,65,44,29.94,29.73,8,2,17,0.00
2013-2-25,46.5,40.8,34.5,37.8,35.5,32.1,91,82,65,29.80,29.48,11,5,16,1.25
2013-2-26,45.1,38.4,34.1,35.6,32.8,28.6,92,81,67,29.89,29.50,8,5,15,0.20
2013-2-27,51.4,39.2,32.5,34.7,29.5,27.0,84,69,44,30.11,29.88,9,4,18,0.00
2013-2-28,50.1,39.1,31.6,33.1,29.1,26.1,81,68,52,30.18,30.10,6,4,11,0.00